Time;durP1;ratioP1;P1;durP2;ratioP2;P2;SDS_P1;SDS_P2;PMS_P1;PMS_P2;Temp;Humidity;BMP_temperature;BMP_pressure;BME280_temperature;BME280_humidity;BME280_pressure;Samples;Min_cycle;Max_cycle;Signal;HPM_P1;HPM_P2
2024/01/19 00:01:20;;;;;;;7.95;4.07;;;-0.60;99.90;;;;;;4949383;28;20111;-74
2024/01/19 00:03:46;;;;;;;4.55;3.50;;;-0.70;99.90;;;;;;4956456;29;20117;-75
2024/01/19 00:06:12;;;;;;;6.13;3.80;;;-0.60;99.90;;;;;;4941358;28;20083;-76
2024/01/19 00:08:38;;;;;;;8.93;4.18;;;-0.50;99.90;;;;;;4940215;28;20169;-71
2024/01/19 00:11:05;;;;;;;6.10;3.92;;;-0.50;99.90;;;;;;4937213;29;20036;-71
2024/01/19 00:13:31;;;;;;;4.18;2.85;;;-0.60;99.90;;;;;;4945996;28;20485;-71
2024/01/19 00:15:56;;;;;;;4.57;3.58;;;-0.50;99.90;;;;;;4944188;29;20039;-71
2024/01/19 00:18:24;;;;;;;12.60;3.97;;;-0.60;99.90;;;;;;4925145;29;20539;-72
2024/01/19 00:20:50;;;;;;;4.43;3.58;;;-0.50;99.90;;;;;;4951893;28;20035;-71
2024/01/19 00:23:16;;;;;;;3.33;2.90;;;-0.60;99.90;;;;;;4941982;28;20654;-71
2024/01/19 00:25:41;;;;;;;6.03;3.67;;;-0.50;99.90;;;;;;4934757;28;20555;-71
2024/01/19 00:28:07;;;;;;;8.27;3.58;;;-0.60;99.90;;;;;;4928058;29;20031;-71
2024/01/19 00:30:32;;;;;;;5.45;3.63;;;-0.60;99.90;;;;;;4943503;28;20770;-71
2024/01/19 00:32:58;;;;;;;9.27;3.58;;;-0.70;99.90;;;;;;4924553;28;20027;-71
2024/01/19 00:35:24;;;;;;;4.28;3.45;;;-0.70;99.90;;;;;;4939554;28;20047;-72
2024/01/19 00:37:49;;;;;;;10.07;3.78;;;-0.60;99.90;;;;;;4939191;28;20068;-70
2024/01/19 00:40:15;;;;;;;5.18;2.90;;;-0.70;99.90;;;;;;4945205;29;20118;-74
2024/01/19 00:42:42;;;;;;;4.53;3.40;;;-0.60;99.90;;;;;;4939936;29;20158;-72
2024/01/19 00:45:09;;;;;;;4.72;3.78;;;-0.70;99.90;;;;;;4943664;29;20530;-71
2024/01/19 00:47:35;;;;;;;6.90;3.45;;;-0.70;99.90;;;;;;4942707;28;20479;-72
2024/01/19 00:50:02;;;;;;;6.75;3.55;;;-0.80;99.90;;;;;;4937119;29;20083;-71
2024/01/19 00:52:27;;;;;;;6.97;4.07;;;-0.70;99.90;;;;;;4943606;29;20106;-71
2024/01/19 00:54:53;;;;;;;6.68;3.40;;;-0.70;99.90;;;;;;4940381;28;20694;-71
2024/01/19 00:57:18;;;;;;;3.67;3.05;;;-0.70;99.90;;;;;;4937427;28;20059;-71
2024/01/19 00:59:44;;;;;;;7.35;3.97;;;-0.60;99.90;;;;;;4939879;28;20035;-71
2024/01/19 01:02:11;;;;;;;2.63;2.50;;;-0.60;99.90;;;;;;4949552;29;20071;-71
2024/01/19 01:04:36;;;;;;;4.30;3.55;;;-0.60;99.90;;;;;;4939708;28;20684;-72
2024/01/19 01:07:02;;;;;;;9.25;3.67;;;-0.60;99.90;;;;;;4936970;28;20058;-72
2024/01/19 01:09:28;;;;;;;8.93;4.22;;;-0.60;99.90;;;;;;4942265;28;20042;-75
2024/01/19 01:11:54;;;;;;;7.60;3.92;;;-0.60;99.90;;;;;;4943891;28;20039;-75
2024/01/19 01:14:19;;;;;;;8.05;3.97;;;-0.60;99.90;;;;;;4943233;28;20027;-75
2024/01/19 01:16:45;;;;;;;8.15;3.63;;;-0.70;99.90;;;;;;4941827;29;20039;-73
2024/01/19 01:19:10;;;;;;;5.85;3.00;;;-0.60;99.90;;;;;;4942946;28;20039;-75
2024/01/19 01:21:36;;;;;;;6.85;3.55;;;-0.70;99.90;;;;;;4943128;28;20039;-75
2024/01/19 01:24:02;;;;;;;6.57;3.78;;;-0.70;99.90;;;;;;4947787;28;20032;-75
2024/01/19 01:26:27;;;;;;;5.80;3.95;;;-0.70;99.90;;;;;;4947870;29;20320;-75
2024/01/19 01:28:54;;;;;;;5.00;3.30;;;-0.70;99.90;;;;;;4941242;28;20094;-75
2024/01/19 01:31:19;;;;;;;5.53;3.58;;;-0.70;99.90;;;;;;4942842;28;20400;-77
2024/01/19 01:33:45;;;;;;;7.80;3.70;;;-0.70;99.90;;;;;;4941947;28;20096;-75
2024/01/19 01:36:11;;;;;;;4.07;3.72;;;-0.70;99.90;;;;;;4946281;28;20122;-76
2024/01/19 01:38:36;;;;;;;6.47;3.65;;;-0.70;99.90;;;;;;4952838;28;20038;-76
2024/01/19 01:41:02;;;;;;;4.85;3.15;;;-0.70;99.90;;;;;;4944655;28;20480;-74
2024/01/19 01:43:29;;;;;;;6.05;3.55;;;-0.80;99.90;;;;;;4949943;28;20031;-74
2024/01/19 01:45:55;;;;;;;4.97;3.63;;;-0.80;99.90;;;;;;4950291;28;20032;-75
2024/01/19 01:48:24;;;;;;;6.90;4.22;;;-0.80;99.90;;;;;;4953307;29;20042;-75
2024/01/19 01:50:50;;;;;;;4.95;3.03;;;-0.80;99.90;;;;;;4947192;28;20451;-75
2024/01/19 01:53:18;;;;;;;9.18;3.63;;;-0.80;99.90;;;;;;4945744;28;20050;-74
2024/01/19 01:55:45;;;;;;;5.82;3.22;;;-0.80;99.90;;;;;;4941628;28;20046;-75
2024/01/19 01:58:12;;;;;;;6.18;3.70;;;-0.90;99.90;;;;;;4943658;29;20035;-75
2024/01/19 02:00:38;;;;;;;7.63;3.03;;;-0.90;99.90;;;;;;4945069;28;20103;-75
2024/01/19 02:03:05;;;;;;;4.22;3.17;;;-0.90;99.90;;;;;;4940276;29;20623;-75
2024/01/19 02:05:31;;;;;;;5.30;4.13;;;-0.90;99.90;;;;;;4943741;29;20050;-75
2024/01/19 02:07:57;;;;;;;3.78;2.97;;;-0.90;99.90;;;;;;4951632;28;20050;-75
2024/01/19 02:10:23;;;;;;;4.97;3.85;;;-0.90;99.90;;;;;;4950600;28;22153;-74
2024/01/19 02:12:49;;;;;;;4.03;3.28;;;-0.90;99.90;;;;;;4938196;29;20031;-74
2024/01/19 02:15:21;;;;;;;8.77;4.05;;;-0.90;99.90;;;;;;4930801;28;20519;-75
2024/01/19 02:17:49;;;;;;;4.35;2.85;;;-0.90;99.90;;;;;;4940722;28;20039;-74
2024/01/19 02:20:15;;;;;;;4.53;3.70;;;-1.00;99.90;;;;;;4944687;28;20039;-77
2024/01/19 02:22:43;;;;;;;3.28;2.78;;;-1.00;99.90;;;;;;4949366;29;20055;-76
2024/01/19 02:25:08;;;;;;;5.88;4.07;;;-1.10;99.90;;;;;;4945730;28;20039;-75
2024/01/19 02:27:34;;;;;;;3.15;2.88;;;-1.10;99.90;;;;;;4950207;29;20065;-75
2024/01/19 02:30:01;;;;;;;5.13;3.25;;;-1.10;99.90;;;;;;4916675;29;20039;-72
2024/01/19 02:32:27;;;;;;;4.68;3.60;;;-1.10;99.90;;;;;;4935225;29;20068;-73
2024/01/19 02:34:52;;;;;;;4.72;3.47;;;-1.10;99.90;;;;;;4935788;29;20027;-77
2024/01/19 02:37:19;;;;;;;4.35;3.83;;;-1.20;99.90;;;;;;4939010;28;20035;-72
2024/01/19 02:39:44;;;;;;;5.00;3.22;;;-1.10;99.90;;;;;;4938064;28;20032;-73
2024/01/19 02:42:10;;;;;;;5.50;3.53;;;-1.20;99.90;;;;;;4939051;28;20444;-71
2024/01/19 02:44:36;;;;;;;4.43;3.08;;;-1.20;99.90;;;;;;4937989;28;20399;-72
2024/01/19 02:47:02;;;;;;;5.22;3.63;;;-1.20;99.90;;;;;;4941519;29;20094;-73
2024/01/19 02:49:28;;;;;;;3.75;2.88;;;-1.20;99.90;;;;;;4918381;29;20034;-73
2024/01/19 02:51:54;;;;;;;1.73;1.63;;;-1.30;99.90;;;;;;4938280;29;20039;-71
2024/01/19 02:54:19;;;;;;;2.42;2.25;;;-1.30;99.90;;;;;;4941815;28;20028;-71
2024/01/19 02:56:45;;;;;;;1.50;1.42;;;-1.40;99.90;;;;;;4942155;29;20490;-72
2024/01/19 02:59:11;;;;;;;2.67;2.42;;;-1.40;99.90;;;;;;4942271;28;20035;-70
2024/01/19 03:01:36;;;;;;;5.57;2.65;;;-1.50;99.90;;;;;;4939460;28;20059;-72
2024/01/19 03:04:03;;;;;;;5.55;2.65;;;-1.50;99.90;;;;;;4942660;28;20031;-72
2024/01/19 03:06:29;;;;;;;5.90;3.60;;;-1.50;99.90;;;;;;4941287;28;20036;-73
2024/01/19 03:08:55;;;;;;;3.25;2.88;;;-1.50;99.90;;;;;;4941431;28;20038;-73
2024/01/19 03:11:20;;;;;;;3.42;2.90;;;-1.50;99.90;;;;;;4943325;28;20061;-72
2024/01/19 03:13:46;;;;;;;2.40;2.10;;;-1.50;99.90;;;;;;4943928;28;20079;-74
2024/01/19 03:16:12;;;;;;;4.50;3.75;;;-1.40;99.90;;;;;;4944255;29;20650;-73
2024/01/19 03:18:37;;;;;;;3.38;3.08;;;-1.50;99.90;;;;;;4943840;28;20042;-72
2024/01/19 03:21:03;;;;;;;3.15;2.88;;;-1.50;99.90;;;;;;4942760;28;20050;-74
2024/01/19 03:23:28;;;;;;;3.70;3.50;;;-1.50;99.90;;;;;;4940378;28;20062;-73
2024/01/19 03:25:54;;;;;;;4.72;3.28;;;-1.50;99.90;;;;;;4939875;28;20082;-72
2024/01/19 03:28:20;;;;;;;4.68;3.25;;;-1.60;99.90;;;;;;4946534;28;20180;-74
2024/01/19 03:30:45;;;;;;;2.28;2.15;;;-1.60;99.90;;;;;;4928767;29;20040;-74
2024/01/19 03:33:11;;;;;;;4.50;2.65;;;-1.60;99.90;;;;;;4943237;28;20039;-73
2024/01/19 03:35:36;;;;;;;2.97;2.78;;;-1.80;99.90;;;;;;4947107;29;20503;-73
2024/01/19 03:38:02;;;;;;;3.22;2.95;;;-1.90;99.90;;;;;;4942647;28;20803;-73
2024/01/19 03:40:28;;;;;;;3.15;2.53;;;-1.80;99.90;;;;;;4943321;28;20155;-73
2024/01/19 03:42:53;;;;;;;3.40;2.53;;;-1.80;99.90;;;;;;4940862;29;20102;-73
2024/01/19 03:45:19;;;;;;;5.53;3.67;;;-1.90;99.90;;;;;;4931815;29;20028;-73
2024/01/19 03:47:45;;;;;;;6.18;3.78;;;-1.90;99.90;;;;;;4941092;28;20039;-72
2024/01/19 03:50:11;;;;;;;5.70;3.28;;;-1.90;99.90;;;;;;4937670;29;20051;-72
2024/01/19 03:52:37;;;;;;;3.10;2.80;;;-1.80;99.90;;;;;;4936625;29;20066;-72
2024/01/19 03:55:06;;;;;;;3.67;3.38;;;-1.80;99.90;;;;;;4931411;29;20057;-73
2024/01/19 03:57:32;;;;;;;6.07;3.42;;;-1.80;99.90;;;;;;4934289;29;20040;-72
2024/01/19 03:59:57;;;;;;;4.70;4.05;;;-1.90;99.90;;;;;;4934514;28;20051;-71
2024/01/19 04:02:23;;;;;;;5.95;3.53;;;-1.90;99.90;;;;;;4929820;28;20530;-71
2024/01/19 04:04:49;;;;;;;4.47;3.25;;;-1.90;99.90;;;;;;4936346;28;20020;-72
2024/01/19 04:07:15;;;;;;;3.92;3.25;;;-1.80;99.90;;;;;;4938972;28;20114;-71
2024/01/19 04:09:41;;;;;;;7.93;3.75;;;-1.80;99.90;;;;;;4937737;28;20118;-72
2024/01/19 04:12:13;;;;;;;5.72;4.47;;;-1.80;99.90;;;;;;4938006;28;20086;-74
2024/01/19 04:14:40;;;;;;;5.97;3.05;;;-1.90;99.90;;;;;;4942684;29;20039;-75
2024/01/19 04:17:06;;;;;;;3.35;3.03;;;-1.90;99.90;;;;;;4945013;28;20042;-71
2024/01/19 04:19:32;;;;;;;4.20;3.20;;;-2.00;99.90;;;;;;4945710;29;20028;-71
2024/01/19 04:21:57;;;;;;;5.88;3.50;;;-2.00;99.90;;;;;;4944629;28;20388;-72
2024/01/19 04:24:23;;;;;;;5.68;4.30;;;-2.10;99.90;;;;;;4941794;29;20110;-72
2024/01/19 04:26:48;;;;;;;8.52;3.53;;;-2.10;99.90;;;;;;4949558;28;20030;-71
2024/01/19 04:29:14;;;;;;;5.32;2.75;;;-2.10;99.90;;;;;;4956175;28;20057;-71
2024/01/19 04:31:40;;;;;;;4.13;2.58;;;-2.20;99.90;;;;;;4947247;29;20519;-70
2024/01/19 04:34:05;;;;;;;5.43;2.80;;;-2.20;99.90;;;;;;4956920;29;20140;-72
2024/01/19 04:36:31;;;;;;;5.28;3.05;;;-2.30;99.90;;;;;;4932323;29;20027;-69
2024/01/19 04:38:56;;;;;;;4.80;2.72;;;-2.40;99.90;;;;;;4946810;29;20035;-73
2024/01/19 04:41:22;;;;;;;5.00;3.15;;;-2.60;99.90;;;;;;4945870;28;21554;-73
2024/01/19 04:43:48;;;;;;;2.80;2.60;;;-2.60;99.90;;;;;;4941117;28;20117;-73
2024/01/19 04:46:13;;;;;;;4.57;4.15;;;-2.70;99.90;;;;;;4943014;28;20049;-73
2024/01/19 04:48:39;;;;;;;1.45;1.38;;;-2.70;99.90;;;;;;4943396;29;20122;-74
2024/01/19 04:51:05;;;;;;;5.65;2.85;;;-2.90;99.90;;;;;;4947607;28;20104;-75
2024/01/19 04:53:31;;;;;;;7.18;3.58;;;-2.90;99.90;;;;;;4944390;29;20027;-75
2024/01/19 04:55:56;;;;;;;5.82;2.55;;;-2.80;99.90;;;;;;4949984;28;20107;-74
2024/01/19 04:58:22;;;;;;;6.05;4.35;;;-2.90;99.90;;;;;;4948119;29;20036;-75
2024/01/19 05:00:48;;;;;;;3.15;2.90;;;-2.90;99.90;;;;;;4950227;28;20051;-76
2024/01/19 05:03:13;;;;;;;6.85;3.92;;;-2.90;99.90;;;;;;4955055;29;20054;-75
2024/01/19 05:05:39;;;;;;;2.38;2.17;;;-2.90;99.90;;;;;;4953223;29;20059;-76
2024/01/19 05:08:05;;;;;;;3.15;2.38;;;-3.10;99.90;;;;;;4936628;29;20086;-76
2024/01/19 05:10:32;;;;;;;3.03;2.60;;;-3.20;99.90;;;;;;4949809;28;20074;-75
2024/01/19 05:12:57;;;;;;;4.78;3.30;;;-3.30;99.90;;;;;;4946494;29;20034;-76
2024/01/19 05:15:23;;;;;;;6.15;3.80;;;-3.20;99.90;;;;;;4955914;29;20918;-76
2024/01/19 05:17:49;;;;;;;5.50;4.20;;;-3.10;99.90;;;;;;4950583;28;20051;-76
2024/01/19 05:20:14;;;;;;;5.60;3.47;;;-3.10;99.90;;;;;;4944869;28;20444;-74
2024/01/19 05:22:40;;;;;;;4.13;3.25;;;-3.10;99.90;;;;;;4939831;28;20039;-74
2024/01/19 05:25:07;;;;;;;4.82;3.50;;;-3.00;99.90;;;;;;4944159;28;20024;-75
2024/01/19 05:27:33;;;;;;;5.53;3.05;;;-3.00;99.90;;;;;;4943511;29;21042;-74
2024/01/19 05:29:58;;;;;;;9.65;3.97;;;-3.10;99.90;;;;;;4927265;29;20038;-73
2024/01/19 05:32:24;;;;;;;4.10;3.05;;;-3.10;99.90;;;;;;4938391;28;20039;-72
2024/01/19 05:34:50;;;;;;;9.32;3.20;;;-3.10;99.90;;;;;;4937545;28;20039;-72
2024/01/19 05:37:15;;;;;;;8.57;4.20;;;-3.00;99.90;;;;;;4942438;29;20039;-73
2024/01/19 05:39:41;;;;;;;3.30;3.00;;;-3.10;99.90;;;;;;4938996;28;20028;-74
2024/01/19 05:42:07;;;;;;;6.03;3.50;;;-3.20;99.90;;;;;;4942236;28;20050;-73
2024/01/19 05:44:33;;;;;;;4.32;3.08;;;-3.20;99.90;;;;;;4938447;28;20034;-74
2024/01/19 05:46:58;;;;;;;3.33;3.03;;;-3.30;99.90;;;;;;4942417;29;20042;-76
2024/01/19 05:49:24;;;;;;;3.05;2.85;;;-3.30;99.90;;;;;;4940132;29;20189;-76
2024/01/19 05:51:50;;;;;;;2.33;2.10;;;-3.40;99.90;;;;;;4941856;29;20039;-75
2024/01/19 05:54:16;;;;;;;4.38;3.95;;;-3.80;99.90;;;;;;4946390;28;20023;-74
2024/01/19 05:56:41;;;;;;;4.55;3.88;;;-3.90;99.90;;;;;;4941552;29;20383;-76
2024/01/19 05:59:07;;;;;;;3.13;2.85;;;-3.90;99.90;;;;;;4945305;28;20027;-78
2024/01/19 06:01:33;;;;;;;5.07;4.60;;;-4.00;99.90;;;;;;4944256;29;20327;-77
2024/01/19 06:04:00;;;;;;;4.30;3.90;;;-3.90;99.90;;;;;;4948956;28;20407;-78
2024/01/19 06:06:25;;;;;;;4.03;3.33;;;-4.00;99.90;;;;;;4951161;29;20024;-76
2024/01/19 06:08:51;;;;;;;4.05;3.35;;;-4.00;99.90;;;;;;4948443;28;20031;-77
2024/01/19 06:11:16;;;;;;;4.97;4.55;;;-3.90;99.90;;;;;;4951411;29;20039;-75
2024/01/19 06:13:44;;;;;;;6.95;5.60;;;-3.90;99.90;;;;;;4947068;28;20066;-75
2024/01/19 06:16:10;;;;;;;5.35;4.18;;;-3.80;99.90;;;;;;4950326;28;20050;-76
2024/01/19 06:18:35;;;;;;;7.68;4.18;;;-3.70;99.90;;;;;;4957069;28;20036;-77
2024/01/19 06:21:01;;;;;;;4.53;3.15;;;-3.70;99.90;;;;;;4958289;28;20038;-77
2024/01/19 06:23:27;;;;;;;9.32;4.43;;;-3.60;99.90;;;;;;4962205;28;20031;-76
2024/01/19 06:25:52;;;;;;;9.13;3.95;;;-3.50;99.90;;;;;;4940931;29;20035;-76
2024/01/19 06:28:18;;;;;;;5.38;3.22;;;-3.50;99.90;;;;;;4961144;29;20041;-76
2024/01/19 06:30:45;;;;;;;4.47;3.88;;;-3.60;99.90;;;;;;4956041;28;20039;-75
2024/01/19 06:33:11;;;;;;;5.00;3.72;;;-3.50;99.90;;;;;;4957216;28;20031;-75
2024/01/19 06:35:37;;;;;;;4.47;3.70;;;-3.40;99.90;;;;;;4957923;28;20046;-76
2024/01/19 06:38:06;;;;;;;11.88;4.30;;;-3.50;99.90;;;;;;4957024;29;20039;-76
2024/01/19 06:40:32;;;;;;;5.90;3.45;;;-3.50;99.90;;;;;;4955976;29;20050;-76
2024/01/19 06:42:57;;;;;;;5.25;3.88;;;-3.50;99.90;;;;;;4957535;28;20040;-76
2024/01/19 06:45:23;;;;;;;5.07;2.72;;;-3.40;99.90;;;;;;4957590;28;20062;-76
2024/01/19 06:47:49;;;;;;;7.28;4.75;;;-3.30;99.90;;;;;;4955957;29;20074;-76
2024/01/19 06:50:14;;;;;;;4.35;3.97;;;-3.30;99.90;;;;;;4959260;28;20396;-77
2024/01/19 06:52:40;;;;;;;7.78;5.72;;;-3.30;99.90;;;;;;4958798;28;20034;-76
2024/01/19 06:55:06;;;;;;;7.25;4.80;;;-3.20;99.90;;;;;;4956369;28;20064;-76
2024/01/19 06:57:32;;;;;;;5.68;5.15;;;-3.20;99.90;;;;;;4956997;28;20039;-75
2024/01/19 06:59:57;;;;;;;12.95;8.45;;;-3.20;99.90;;;;;;4944083;29;20546;-71
2024/01/19 07:02:23;;;;;;;33.50;15.43;;;-3.10;99.90;;;;;;4935193;28;20146;-72
2024/01/19 07:04:49;;;;;;;6.72;5.72;;;-3.10;99.90;;;;;;4943601;29;20862;-70
2024/01/19 07:07:15;;;;;;;21.58;10.13;;;-3.10;99.90;;;;;;4947192;28;20072;-72
2024/01/19 07:09:41;;;;;;;5.78;3.60;;;-3.10;99.90;;;;;;4949086;29;20031;-75
2024/01/19 07:12:07;;;;;;;8.80;4.75;;;-3.00;99.90;;;;;;4946388;29;20115;-74
2024/01/19 07:14:33;;;;;;;7.43;4.32;;;-3.00;99.90;;;;;;4949491;28;20043;-75
2024/01/19 07:16:58;;;;;;;4.63;4.28;;;-3.00;99.90;;;;;;4948184;29;20062;-73
2024/01/19 07:19:25;;;;;;;5.53;4.57;;;-2.90;99.90;;;;;;4945283;28;20039;-74
2024/01/19 07:21:50;;;;;;;6.40;4.00;;;-2.90;99.90;;;;;;4942059;28;20035;-74
2024/01/19 07:24:16;;;;;;;6.13;4.03;;;-2.80;99.90;;;;;;4943149;28;20079;-74
2024/01/19 07:26:42;;;;;;;6.00;3.88;;;-2.80;99.90;;;;;;4939059;28;20715;-74
2024/01/19 07:29:09;;;;;;;9.15;4.25;;;-2.80;99.90;;;;;;4945102;29;20112;-76
2024/01/19 07:31:35;;;;;;;4.60;4.20;;;-2.70;99.90;;;;;;4938462;28;20042;-72
2024/01/19 07:34:01;;;;;;;6.97;4.85;;;-2.70;99.90;;;;;;4945480;28;20117;-74
2024/01/19 07:36:27;;;;;;;15.20;4.65;;;-2.70;99.90;;;;;;4948925;28;20118;-74
2024/01/19 07:38:54;;;;;;;8.70;6.00;;;-2.60;99.90;;;;;;4948376;29;20545;-75
2024/01/19 07:41:20;;;;;;;8.50;5.72;;;-2.60;99.90;;;;;;4945304;28;20135;-76
2024/01/19 07:43:45;;;;;;;4.72;4.32;;;-2.60;99.90;;;;;;4932544;29;20063;-75
2024/01/19 07:46:12;;;;;;;7.45;3.95;;;-2.50;99.90;;;;;;4943726;29;20038;-76
2024/01/19 07:48:38;;;;;;;7.50;5.35;;;-2.50;99.90;;;;;;4950157;28;20753;-75
2024/01/19 07:51:04;;;;;;;5.25;3.33;;;-2.40;99.90;;;;;;4946990;28;20046;-75
2024/01/19 07:53:31;;;;;;;3.47;2.67;;;-2.40;99.90;;;;;;4947214;28;20031;-74
2024/01/19 07:55:57;;;;;;;9.80;6.35;;;-2.40;99.90;;;;;;4948985;28;20102;-75
2024/01/19 07:58:23;;;;;;;8.43;6.00;;;-2.40;99.90;;;;;;4949047;28;20125;-75
2024/01/19 08:00:48;;;;;;;7.13;5.03;;;-2.40;99.90;;;;;;4954858;28;20059;-76
2024/01/19 08:03:15;;;;;;;10.25;4.38;;;-2.30;99.90;;;;;;4953184;28;20054;-76
2024/01/19 08:05:41;;;;;;;8.35;4.93;;;-2.30;99.90;;;;;;4949582;28;20042;-74
2024/01/19 08:08:06;;;;;;;16.80;3.58;;;-2.30;99.90;;;;;;4951535;28;20795;-75
2024/01/19 08:10:35;;;;;;;9.93;4.45;;;-2.30;99.90;;;;;;4952620;28;20031;-76
2024/01/19 08:13:01;;;;;;;10.15;5.63;;;-2.20;99.90;;;;;;4954285;28;20119;-75
2024/01/19 08:15:26;;;;;;;4.03;3.15;;;-2.20;99.90;;;;;;4951913;28;20028;-73
2024/01/19 08:17:52;;;;;;;3.58;3.25;;;-2.20;99.90;;;;;;4950929;28;20095;-74
2024/01/19 08:20:18;;;;;;;6.65;3.90;;;-2.20;99.90;;;;;;4953274;28;20031;-75
2024/01/19 08:22:43;;;;;;;13.18;6.80;;;-2.20;99.90;;;;;;4950589;28;20040;-75
2024/01/19 08:25:10;;;;;;;7.20;5.20;;;-2.10;99.90;;;;;;4933575;28;20090;-73
2024/01/19 08:27:40;;;;;;;9.48;5.82;;;-2.10;99.90;;;;;;4946299;29;20122;-76
2024/01/19 08:30:07;;;;;;;5.57;4.50;;;-2.10;99.90;;;;;;4951702;29;20026;-75
2024/01/19 08:32:34;;;;;;;6.50;4.90;;;-2.00;99.90;;;;;;4951293;28;20065;-76
2024/01/19 08:35:08;;;;;;;11.02;5.60;;;-2.00;99.90;;;;;;4948695;28;20031;-74
2024/01/19 08:37:40;;;;;;;6.65;5.05;;;-2.00;99.90;;;;;;4953801;28;20034;-75
2024/01/19 08:40:07;;;;;;;5.63;5.05;;;-1.90;99.90;;;;;;4948321;29;20043;-75
2024/01/19 08:42:33;;;;;;;10.07;5.65;;;-1.90;99.90;;;;;;4953915;28;20032;-76
2024/01/19 08:44:59;;;;;;;7.82;5.85;;;-1.90;99.90;;;;;;4952936;29;20031;-75
2024/01/19 08:47:25;;;;;;;10.85;6.28;;;-1.80;99.90;;;;;;4953920;29;20065;-73
2024/01/19 08:49:51;;;;;;;5.68;4.70;;;-1.80;99.90;;;;;;4948913;28;20054;-76
2024/01/19 08:52:17;;;;;;;8.10;5.60;;;-1.70;99.90;;;;;;4946387;28;20047;-75
2024/01/19 08:54:42;;;;;;;12.50;6.25;;;-1.70;99.90;;;;;;4953112;28;20122;-75
2024/01/19 08:57:08;;;;;;;9.75;6.20;;;-1.70;99.90;;;;;;4951166;29;20586;-74
2024/01/19 08:59:34;;;;;;;11.40;6.28;;;-1.60;99.90;;;;;;4957004;28;20055;-73
2024/01/19 09:01:59;;;;;;;11.73;6.80;;;-1.60;99.90;;;;;;4960732;28;20075;-73
2024/01/19 09:04:25;;;;;;;9.85;6.35;;;-1.60;99.90;;;;;;4962944;28;20491;-76
2024/01/19 09:06:51;;;;;;;7.97;5.35;;;-1.50;99.90;;;;;;4957521;28;20092;-77
2024/01/19 09:09:17;;;;;;;13.40;6.70;;;-1.50;99.90;;;;;;4961156;28;20043;-74
2024/01/19 09:11:43;;;;;;;10.38;6.75;;;-1.40;99.90;;;;;;4963870;28;20031;-74
2024/01/19 09:14:10;;;;;;;16.70;7.28;;;-1.40;99.90;;;;;;4961003;28;20090;-75
2024/01/19 09:16:36;;;;;;;9.73;6.45;;;-1.40;99.90;;;;;;4953359;28;20027;-75
2024/01/19 09:19:02;;;;;;;11.15;7.20;;;-1.30;99.90;;;;;;4952849;28;20035;-74
2024/01/19 09:21:27;;;;;;;12.85;7.18;;;-1.30;99.90;;;;;;4951879;28;20038;-74
2024/01/19 09:23:53;;;;;;;13.45;7.20;;;-1.20;99.90;;;;;;4948770;28;20046;-74
2024/01/19 09:26:23;;;;;;;7.72;5.32;;;-1.20;99.90;;;;;;4949004;28;20143;-75
2024/01/19 09:28:49;;;;;;;13.52;7.32;;;-1.20;99.90;;;;;;4955750;28;20086;-71
2024/01/19 09:31:15;;;;;;;17.45;6.22;;;-1.20;99.90;;;;;;4953783;28;20098;-71
2024/01/19 09:33:41;;;;;;;15.85;7.35;;;-1.20;99.90;;;;;;4956445;28;20008;-72
2024/01/19 09:36:08;;;;;;;12.35;7.05;;;-1.10;99.90;;;;;;4934170;28;20041;-72
2024/01/19 09:38:35;;;;;;;15.25;7.65;;;-1.10;99.90;;;;;;4957968;28;20130;-71
2024/01/19 09:41:19;;;;;;;11.05;6.07;;;-1.10;99.90;;;;;;4946328;28;20027;-72
2024/01/19 09:43:45;;;;;;;10.18;7.50;;;-1.10;99.90;;;;;;4948967;28;20032;-72
2024/01/19 09:46:18;;;;;;;10.93;7.32;;;-1.00;99.90;;;;;;4950406;28;20039;-74
2024/01/19 09:49:09;;;;;;;11.93;6.35;;;-1.00;99.90;;;;;;4949139;28;20049;-73
2024/01/19 09:51:47;;;;;;;13.00;7.88;;;-1.00;99.90;;;;;;4949102;28;20033;-71
2024/01/19 09:54:20;;;;;;;11.70;6.53;;;-0.90;99.90;;;;;;4946569;28;20041;-72
2024/01/19 09:56:46;;;;;;;5.32;4.25;;;-0.90;99.90;;;;;;4950525;28;20047;-71
2024/01/19 09:59:14;;;;;;;14.35;8.32;;;-0.90;99.90;;;;;;4952101;28;20603;-71
2024/01/19 10:01:40;;;;;;;9.15;7.35;;;-0.80;99.90;;;;;;4941727;28;20047;-73
2024/01/19 10:04:10;;;;;;;12.07;7.97;;;-0.70;99.90;;;;;;4949075;28;20072;-76
2024/01/19 10:06:37;;;;;;;13.73;8.02;;;-0.70;99.90;;;;;;4945882;28;20119;-72
2024/01/19 10:09:04;;;;;;;12.48;7.15;;;-0.70;99.90;;;;;;4950025;29;20487;-72
2024/01/19 10:11:30;;;;;;;15.27;8.63;;;-0.70;99.90;;;;;;4950694;28;20158;-71
2024/01/19 10:13:56;;;;;;;13.00;8.95;;;-0.70;99.90;;;;;;4950608;28;20039;-71
2024/01/19 10:16:22;;;;;;;15.43;8.23;;;-0.60;99.90;;;;;;4947358;28;20042;-72
2024/01/19 10:18:49;;;;;;;13.07;8.23;;;-0.60;99.90;;;;;;4952816;28;20611;-72
2024/01/19 10:21:29;;;;;;;16.17;7.65;;;-0.50;99.90;;;;;;4950820;29;20031;-73
2024/01/19 10:24:14;;;;;;;10.32;6.85;;;-0.60;99.90;;;;;;4951901;28;20023;-71
2024/01/19 10:26:42;;;;;;;9.40;5.40;;;-0.60;99.90;;;;;;4934005;29;20031;-70
2024/01/19 10:29:12;;;;;;;9.93;6.38;;;-0.60;99.90;;;;;;4949000;29;20034;-74
2024/01/19 10:31:39;;;;;;;9.55;6.88;;;-0.70;99.90;;;;;;4954743;28;20063;-74
2024/01/19 10:34:05;;;;;;;14.07;7.28;;;-0.60;99.90;;;;;;4941990;29;20031;-73
2024/01/19 10:36:41;;;;;;;14.35;7.22;;;-0.60;99.90;;;;;;4952857;28;20078;-74
2024/01/19 10:39:23;;;;;;;10.57;8.18;;;-0.50;99.90;;;;;;4953195;28;20114;-74
2024/01/19 10:41:49;;;;;;;10.43;7.70;;;-0.60;99.90;;;;;;4949285;28;20537;-76
2024/01/19 10:44:23;;;;;;;19.67;7.95;;;-0.50;99.90;;;;;;4952244;29;20059;-71
2024/01/19 10:46:53;;;;;;;16.67;8.65;;;-0.50;99.90;;;;;;4953017;29;20035;-74
2024/01/19 10:49:19;;;;;;;10.45;6.93;;;-0.40;99.90;;;;;;4948314;28;20051;-74
2024/01/19 10:51:46;;;;;;;11.70;7.15;;;-0.40;99.90;;;;;;4936762;29;20027;-73
2024/01/19 10:54:17;;;;;;;15.32;8.27;;;-0.40;99.90;;;;;;4951212;28;20031;-74
2024/01/19 10:56:45;;;;;;;10.80;6.82;;;-0.30;99.90;;;;;;4949913;29;20038;-73
2024/01/19 10:59:12;;;;;;;10.65;5.97;;;-0.40;99.90;;;;;;4951178;28;20596;-72
2024/01/19 11:01:38;;;;;;;10.35;6.82;;;-0.40;99.90;;;;;;4951042;28;20046;-74
2024/01/19 11:04:09;;;;;;;15.82;6.57;;;-0.40;99.90;;;;;;4949483;28;20042;-74
2024/01/19 11:06:38;;;;;;;8.85;5.63;;;-0.40;99.90;;;;;;4952629;29;20634;-74
2024/01/19 11:09:06;;;;;;;11.68;6.88;;;-0.50;99.90;;;;;;4950529;28;20066;-74
2024/01/19 11:11:38;;;;;;;14.27;6.07;;;-0.50;99.90;;;;;;4954465;29;20035;-74
2024/01/19 11:14:08;;;;;;;8.80;5.72;;;-0.60;99.90;;;;;;4950830;28;20316;-74
2024/01/19 11:16:47;;;;;;;8.93;6.03;;;-0.60;99.90;;;;;;4952316;28;20038;-75
2024/01/19 11:19:17;;;;;;;2.78;2.55;;;-0.60;99.90;;;;;;4943851;29;20039;-74
2024/01/19 11:21:44;;;;;;;3.25;3.00;;;-0.60;99.90;;;;;;4956992;28;20093;-74
2024/01/19 11:24:12;;;;;;;4.18;3.33;;;-0.60;99.90;;;;;;4956648;28;20039;-74
2024/01/19 11:26:44;;;;;;;9.43;5.68;;;-0.50;99.90;;;;;;4938385;29;20023;-74
2024/01/19 11:29:30;;;;;;;8.85;5.82;;;-0.50;99.90;;;;;;4954734;28;20039;-75
2024/01/19 11:31:58;;;;;;;11.82;7.43;;;-0.50;99.90;;;;;;4939654;28;20048;-73
2024/01/19 11:34:41;;;;;;;16.30;7.80;;;-0.40;99.90;;;;;;4950143;29;20530;-73
2024/01/19 11:37:07;;;;;;;4.38;3.92;;;-0.40;99.90;;;;;;4952299;29;20478;-74
2024/01/19 11:39:41;;;;;;;12.85;6.05;;;-0.40;99.90;;;;;;4955635;28;20027;-74
2024/01/19 11:42:39;;;;;;;8.65;4.88;;;-0.30;99.90;;;;;;4947620;28;20035;-74
2024/01/19 11:45:05;;;;;;;6.72;4.97;;;-0.30;99.90;;;;;;4947620;28;20035;-75
2024/01/19 11:47:38;;;;;;;12.75;6.55;;;-0.20;99.90;;;;;;4947720;28;20947;-75
2024/01/19 11:50:12;;;;;;;10.98;6.35;;;-0.20;99.90;;;;;;4952605;28;20026;-75
2024/01/19 11:52:42;;;;;;;7.70;4.32;;;-0.10;99.90;;;;;;4954751;28;20396;-75
2024/01/19 11:55:26;;;;;;;2.88;2.67;;;0.00;99.90;;;;;;4957597;28;20058;-74
2024/01/19 11:57:52;;;;;;;11.30;4.28;;;0.10;99.90;;;;;;4946611;29;20692;-75
2024/01/19 12:00:19;;;;;;;7.07;5.20;;;0.10;99.90;;;;;;4952541;28;20523;-74
2024/01/19 12:02:46;;;;;;;3.60;3.33;;;0.10;99.90;;;;;;4944029;28;20055;-74
2024/01/19 12:05:11;;;;;;;5.35;3.53;;;0.00;99.90;;;;;;4947073;28;20023;-75
2024/01/19 12:07:37;;;;;;;7.55;5.25;;;0.00;99.90;;;;;;4950584;28;20097;-73
2024/01/19 12:10:07;;;;;;;3.50;3.15;;;0.00;99.90;;;;;;4940730;28;20062;-74
2024/01/19 12:12:33;;;;;;;11.15;5.50;;;0.00;99.90;;;;;;4952175;28;20092;-75
2024/01/19 12:15:00;;;;;;;10.65;5.72;;;-0.10;99.90;;;;;;4949931;28;20126;-76
2024/01/19 12:17:27;;;;;;;6.65;4.28;;;-0.10;99.90;;;;;;4949911;28;20034;-75
2024/01/19 12:19:54;;;;;;;9.63;6.63;;;-0.10;99.90;;;;;;4952470;28;20047;-73
2024/01/19 12:22:20;;;;;;;6.72;4.82;;;0.00;99.90;;;;;;4956154;28;20110;-74
2024/01/19 12:24:46;;;;;;;4.50;3.42;;;0.10;99.90;;;;;;4955205;28;20122;-74
2024/01/19 12:27:21;;;;;;;7.43;4.65;;;0.10;99.90;;;;;;4950981;29;20058;-74
2024/01/19 12:29:46;;;;;;;7.85;5.25;;;0.20;99.90;;;;;;4947208;29;20032;-74
2024/01/19 12:32:13;;;;;;;9.68;5.80;;;0.10;99.90;;;;;;4946952;28;20043;-74
2024/01/19 12:34:59;;;;;;;4.15;3.78;;;0.10;99.90;;;;;;4953299;28;20062;-75
2024/01/19 12:37:24;;;;;;;11.15;6.32;;;0.20;99.90;;;;;;4952047;28;20028;-75
2024/01/19 12:39:50;;;;;;;7.93;5.60;;;0.20;99.90;;;;;;4947225;29;20047;-75
2024/01/19 12:42:17;;;;;;;6.28;4.80;;;0.30;99.90;;;;;;4958199;28;20047;-76
2024/01/19 12:44:42;;;;;;;4.22;2.50;;;0.30;99.90;;;;;;4958921;28;20592;-76